Miguel Alves, Brazil
Current Conditions -  °F | °C
As of 7:00 AM on Monday 26 Jan 2015 (Local Time) from SBTE Reporting Station
Broken Clouds Broken Clouds  
Wind Chill: 26°   Ceiling: 3000
Heat Index: 28°   Visibility: 6mi
Dew Point: 23°   Wind: 6mph
Humidity: 83%   Direction: 220°SW
Pressure: 29.91"   Gusts: NA
Location:  4.17°S, 42.9°W
Report Text: SBTE 261000Z 22005KT 9999 BKN030 BKN070 26/23 Q1013
Loading
Personal Weather Stations






























Interactive Weather Map New forecast layout! Learn more

10-Day Weather Forecast

Advertisements
Track Severe Weather on mobile